This is the latest recevied weather packets stored in our database for station/object N3TTT-13. If no packets are shown the sender has not sent any weather packets the latest 10 day(s).
| Time | Temp. | Humidity | Pressure | Rain* | Wind** | Luminosity | Snow |
|---|---|---|---|---|---|---|---|
| 1777389062 | 16.11° C | 56% | 1022.3 hPa | 0 mm | - | 177 W/m² | - |
| 1777388760 | 16.11° C | 56% | 1022.1 hPa | 0 mm | - | 151 W/m² | - |
| 1777388456 | 16.11° C | 56% | 1022.3 hPa | 0 mm | - | 148 W/m² | - |
| 1777388156 | 16.11° C | 56% | 1022.2 hPa | 0 mm | - | 153 W/m² | - |
| 1777387852 | 16.67° C | 54% | 1022.1 hPa | 0 mm | - | 170 W/m² | - |
| 1777387549 | 16.67° C | 56% | 1022 hPa | 0 mm | - | 186 W/m² | - |
| 1777387244 | 16.67° C | 52% | 1022.1 hPa | 0 mm | - | 217 W/m² | - |
| 1777386940 | 17.22° C | 51% | 1022.4 hPa | 0 mm | - | 308 W/m² | - |
| 1777386637 | 16.67° C | 56% | 1022.2 hPa | 0 mm | - | 416 W/m² | - |
| 1777386334 | 16.11° C | 56% | 1022.4 hPa | 0 mm | - | 285 W/m² | - |
| 1777386032 | 16.11° C | 54% | 1022.3 hPa | 0 mm | - | 304 W/m² | - |
| 1777385728 | 16.11° C | 58% | 1022 hPa | 0 mm | - | 193 W/m² | - |
| 1777385425 | 16.67° C | 59% | 1022.4 hPa | 0 mm | - | 188 W/m² | - |
| 1777385121 | 17.22° C | 57% | 1022.4 hPa | 0 mm | - | 314 W/m² | - |
| 1777384817 | 16.67° C | 56% | 1021.9 hPa | 0 mm | - | 536 W/m² | - |
| 1777384515 | 16.67° C | 56% | 1022 hPa | 0 mm | - | 569 W/m² | - |
| 1777384210 | 16.11° C | 57% | 1022.1 hPa | 0 mm | - | 714 W/m² | - |
| 1777383906 | 16.11° C | 61% | 1022.2 hPa | 0 mm | - | 680 W/m² | - |
| 1777383601 | 15.56° C | 62% | 1022.4 hPa | 0 mm | - | 610 W/m² | - |
| 1777383298 | 16.11° C | 59% | 1022.1 hPa | 0 mm | - | 575 W/m² | - |
| 1777382994 | 15.56° C | 62% | 1022.3 hPa | 0 mm | - | 533 W/m² | - |
| 1777382691 | 14.44° C | 65% | 1022.6 hPa | 0 mm | - | 533 W/m² | - |
| 1777382386 | 13.89° C | 67% | 1022.7 hPa | 0 mm | - | 416 W/m² | - |
| 1777382083 | 14.44° C | 65% | 1022.6 hPa | 0 mm | - | 200 W/m² | - |
| 1777381779 | 13.89° C | 67% | 1022.6 hPa | 0 mm | - | 318 W/m² | - |
* Rain latest hour (hover to see other rain measurements)
** Current wind speed in m/s (hover to see current wind gust speed)